Time;durP1;ratioP1;P1;durP2;ratioP2;P2;SDS_P1;SDS_P2;PMS_P1;PMS_P2;Temp;Humidity;BMP_temperature;BMP_pressure;BME280_temperature;BME280_humidity;BME280_pressure;Samples;Min_cycle;Max_cycle;Signal;HPM_P1;HPM_P2
2021/12/21 00:01:22;;;;;;;16.27;6.50;;;0.70;99.90;;;;;;6179791;23;20017;-83
2021/12/21 00:03:47;;;;;;;10.80;5.70;;;1.20;99.90;;;;;;6154578;23;20047;-83
2021/12/21 00:06:13;;;;;;;13.25;5.90;;;3.50;99.90;;;;;;6179099;23;20439;-83
2021/12/21 00:08:38;;;;;;;11.85;6.22;;;1.30;99.90;;;;;;6179353;23;20017;-83
2021/12/21 00:11:04;;;;;;;15.38;6.43;;;4.00;99.90;;;;;;6178913;23;20017;-83
2021/12/21 00:16:08;;;;;;;13.10;5.95;;;1.50;99.90;;;;;;6178128;22;20075;-83
2021/12/21 00:18:41;;;;;;;13.40;5.82;;;2.70;99.90;;;;;;6152807;23;20051;-84
2021/12/21 00:21:19;;;;;;;15.75;5.93;;;2.70;99.90;;;;;;6153760;23;20025;-83
2021/12/21 00:23:49;;;;;;;12.32;5.72;;;1.80;99.90;;;;;;6179011;23;20009;-83
2021/12/21 00:26:19;;;;;;;14.02;5.78;;;1.50;99.90;;;;;;6154333;23;20359;-83
2021/12/21 00:31:20;;;;;;;8.35;5.25;;;3.60;99.90;;;;;;6205020;23;20025;-83
2021/12/21 00:33:47;;;;;;;13.35;6.32;;;1.20;99.90;;;;;;6154540;23;20032;-83
2021/12/21 00:36:16;;;;;;;13.60;6.55;;;1.50;99.90;;;;;;6154035;23;20382;-84
2021/12/21 00:38:43;;;;;;;14.43;6.57;;;1.20;99.90;;;;;;6179117;23;20021;-83
2021/12/21 00:41:09;;;;;;;19.52;5.90;;;1.50;99.90;;;;;;6178820;23;20020;-83
2021/12/21 00:43:35;;;;;;;15.77;6.13;;;2.80;99.90;;;;;;6154851;23;20021;-83
2021/12/21 00:46:01;;;;;;;14.18;7.03;;;1.80;99.90;;;;;;6154090;23;20042;-84
2021/12/21 00:48:29;;;;;;;16.67;5.90;;;1.40;99.90;;;;;;6178679;23;20077;-83
2021/12/21 00:50:57;;;;;;;13.20;5.22;;;1.90;99.90;;;;;;6154046;23;20016;-83
2021/12/21 00:53:23;;;;;;;14.15;7.03;;;0.10;99.90;;;;;;6179159;22;20025;-83
2021/12/21 00:55:48;;;;;;;13.65;6.97;;;0.40;99.90;;;;;;6154347;23;20072;-83
2021/12/21 00:58:14;;;;;;;18.10;6.45;;;0.40;99.90;;;;;;6178831;23;20385;-83
2021/12/21 01:00:40;;;;;;;12.85;6.22;;;0.80;99.90;;;;;;6178979;23;20451;-83
2021/12/21 01:03:10;;;;;;;16.00;6.57;;;0.70;99.90;;;;;;6154006;23;20446;-83
2021/12/21 01:05:48;;;;;;;9.60;5.75;;;3.20;99.90;;;;;;6154192;23;20032;-83
2021/12/21 01:08:18;;;;;;;14.00;6.07;;;0.20;99.90;;;;;;6154024;23;20086;-83
2021/12/21 01:13:16;;;;;;;18.85;6.03;;;0.30;99.90;;;;;;6204017;23;20018;-82
2021/12/21 01:15:59;;;;;;;12.18;5.85;;;0.80;99.90;;;;;;6179101;23;20017;-83
2021/12/21 01:18:34;;;;;;;14.23;6.30;;;0.60;99.90;;;;;;6154331;23;20021;-83
2021/12/21 01:21:12;;;;;;;15.95;7.70;;;0.60;99.90;;;;;;6179334;22;20024;-82
2021/12/21 01:26:21;;;;;;;13.07;6.45;;;0.60;99.90;;;;;;6178277;22;20032;-83
2021/12/21 01:28:56;;;;;;;13.35;6.50;;;0.90;99.90;;;;;;6152866;23;20021;-83
2021/12/21 01:36:33;;;;;;;18.85;6.72;;;0.80;99.90;;;;;;6203912;23;20025;-82
2021/12/21 01:39:09;;;;;;;13.48;6.25;;;1.40;99.90;;;;;;6154020;23;20093;-82
2021/12/21 01:41:42;;;;;;;;;;;0.60;99.90;;;;;;6154023;23;20396;-83
2021/12/21 01:44:44;;;;;;;14.00;6.65;;;1.30;99.90;;;;;;6153699;23;19923;-82
2021/12/21 01:49:51;;;;;;;16.10;7.45;;;2.90;99.90;;;;;;6203770;23;20082;-82
2021/12/21 01:52:21;;;;;;;12.40;6.10;;;0.80;99.90;;;;;;6167792;23;20013;-82
2021/12/21 01:54:47;;;;;;;11.13;6.80;;;0.70;99.90;;;;;;6154069;23;20097;-82
2021/12/21 01:57:14;;;;;;;15.70;6.35;;;1.40;99.90;;;;;;6153874;22;20347;-82
2021/12/21 01:59:41;;;;;;;18.17;6.90;;;0.50;99.90;;;;;;6178352;23;20013;-82
2021/12/21 02:02:08;;;;;;;80.45;10.80;;;0.20;99.90;;;;;;6178519;23;20052;-82
2021/12/21 02:04:37;;;;;;;19.02;6.68;;;0.40;99.90;;;;;;6154138;22;20013;-82
2021/12/21 02:07:03;;;;;;;14.60;6.88;;;0.80;99.90;;;;;;6178076;23;20696;-83
2021/12/21 02:09:37;;;;;;;13.70;6.15;;;0.80;99.90;;;;;;6178902;23;20084;-82
2021/12/21 02:12:05;;;;;;;18.98;7.65;;;2.60;99.90;;;;;;6153660;23;20017;-83
2021/12/21 02:14:35;;;;;;;9.82;6.50;;;1.00;99.90;;;;;;6153677;23;20024;-82
2021/12/21 02:17:33;;;;;;;15.02;6.88;;;0.20;99.90;;;;;;6178347;23;20021;-82
2021/12/21 02:20:14;;;;;;;13.48;7.20;;;0.90;99.90;;;;;;6178246;23;20025;-82
2021/12/21 02:22:45;;;;;;;19.48;7.05;;;0.80;99.90;;;;;;6178571;23;20124;-82
2021/12/21 02:25:37;;;;;;;13.52;6.47;;;0.70;99.90;;;;;;6153906;23;20017;-82
2021/12/21 02:30:46;;;;;;;11.10;6.10;;;0.30;99.90;;;;;;6155755;23;20021;-82
2021/12/21 02:33:13;;;;;;;17.73;6.78;;;-0.40;99.90;;;;;;6178270;23;20088;-82
2021/12/21 02:35:41;;;;;;;19.42;6.95;;;-0.30;99.90;;;;;;6152487;23;20047;-82
2021/12/21 02:38:07;;;;;;;11.95;6.70;;;-0.30;99.90;;;;;;6177202;23;20100;-82
2021/12/21 02:40:33;;;;;;;22.77;7.53;;;0.20;99.90;;;;;;6154203;23;20466;-81
2021/12/21 02:42:58;;;;;;;14.63;7.38;;;0.40;99.90;;;;;;6179077;23;20063;-82
2021/12/21 02:45:24;;;;;;;14.20;7.05;;;0.30;99.90;;;;;;6154859;23;20047;-81
2021/12/21 02:47:50;;;;;;;16.38;7.25;;;2.30;99.90;;;;;;6179485;23;20554;-81
2021/12/21 02:50:16;;;;;;;17.05;7.57;;;-0.30;99.90;;;;;;6154772;23;20303;-81
2021/12/21 02:52:42;;;;;;;24.92;9.68;;;0.00;99.90;;;;;;6177268;23;20017;-81
2021/12/21 02:55:08;;;;;;;18.30;8.18;;;0.20;99.90;;;;;;6179492;23;20025;-82
2021/12/21 02:57:35;;;;;;;17.55;7.82;;;0.40;99.90;;;;;;6154749;23;20048;-82
2021/12/21 03:00:01;;;;;;;23.20;7.65;;;0.20;99.90;;;;;;6154893;23;20053;-82
2021/12/21 03:02:28;;;;;;;15.90;6.78;;;1.40;99.90;;;;;;6154913;23;20028;-82
2021/12/21 03:04:55;;;;;;;18.90;8.07;;;0.40;99.90;;;;;;6179744;23;20092;-82
2021/12/21 03:10:03;;;;;;;17.27;7.00;;;0.20;99.90;;;;;;6179330;23;20100;-81
2021/12/21 03:13:51;;;;;;;14.32;6.85;;;0.40;99.90;;;;;;6154793;23;20040;-81
2021/12/21 03:15:14;;;;;;;13.63;6.93;;;2.20;99.90;;;;;;6179017;23;20351;-81
2021/12/21 03:17:40;;;;;;;16.70;6.35;;;0.10;99.90;;;;;;6179614;23;20021;-81
2021/12/21 03:20:06;;;;;;;11.65;6.50;;;-0.60;99.90;;;;;;6179203;23;20404;-82
2021/12/21 03:22:31;;;;;;;15.32;7.45;;;-0.80;99.90;;;;;;6154921;23;20017;-82
2021/12/21 03:24:57;;;;;;;758.70;35.45;;;-1.00;99.90;;;;;;6154808;23;20523;-82
2021/12/21 03:27:23;;;;;;;23.30;7.80;;;-0.30;99.90;;;;;;6154341;23;20444;-81
2021/12/21 03:29:49;;;;;;;22.20;8.68;;;0.30;99.90;;;;;;6154507;23;20044;-81
2021/12/21 03:32:14;;;;;;;17.38;8.20;;;0.70;99.90;;;;;;6179356;23;20016;-81
2021/12/21 03:34:40;;;;;;;16.92;8.88;;;2.60;99.90;;;;;;6154841;23;20019;-81
2021/12/21 03:37:12;;;;;;;15.85;7.80;;;-0.20;99.90;;;;;;6154530;23;20055;-82
2021/12/21 03:39:41;;;;;;;17.48;8.27;;;2.70;99.90;;;;;;6154777;23;20020;-81
2021/12/21 03:42:07;;;;;;;17.23;7.30;;;;;;;;;;6178961;23;20127;-82
2021/12/21 03:44:33;;;;;;;17.00;7.88;;;0.80;99.90;;;;;;6203240;22;20017;-83
2021/12/21 03:46:58;;;;;;;14.07;7.28;;;0.40;99.90;;;;;;6178743;23;20104;-81
2021/12/21 03:52:04;;;;;;;20.03;7.80;;;0.70;99.90;;;;;;6204045;23;20018;-83
2021/12/21 03:54:30;;;;;;;12.75;6.85;;;0.80;99.90;;;;;;6179491;23;20021;-82
2021/12/21 03:56:55;;;;;;;15.20;6.43;;;0.20;99.90;;;;;;6179306;23;20094;-82
2021/12/21 03:59:22;;;;;;;306.80;14.93;;;0.50;99.90;;;;;;6154772;23;20447;-82
2021/12/21 04:01:48;;;;;;;15.93;7.18;;;0.40;99.90;;;;;;6179518;23;20093;-81
2021/12/21 04:04:18;;;;;;;12.60;6.72;;;0.50;99.90;;;;;;6179164;23;20017;-82
2021/12/21 04:06:44;;;;;;;14.02;7.30;;;0.40;99.90;;;;;;6154676;23;20024;-81
2021/12/21 04:09:09;;;;;;;14.98;7.28;;;0.40;99.90;;;;;;6179421;23;20100;-81
2021/12/21 04:11:35;;;;;;;15.18;6.97;;;0.00;99.90;;;;;;6179024;23;20101;-81
2021/12/21 04:14:01;;;;;;;12.50;7.30;;;0.60;99.90;;;;;;6179186;23;20024;-82
2021/12/21 04:16:27;;;;;;;14.65;7.68;;;-0.10;99.90;;;;;;6179250;22;20394;-82
2021/12/21 04:18:53;;;;;;;13.15;7.85;;;0.50;99.90;;;;;;6179323;23;20028;-82
2021/12/21 04:21:19;;;;;;;10.93;6.95;;;0.10;99.90;;;;;;6178852;23;20347;-82
2021/12/21 04:23:45;;;;;;;17.25;5.75;;;0.50;99.90;;;;;;6154630;23;20017;-82
2021/12/21 04:26:16;;;;;;;10.27;5.97;;;-0.20;99.90;;;;;;6179144;23;20013;-82
2021/12/21 04:28:44;;;;;;;22.90;6.40;;;-0.80;99.90;;;;;;6179546;23;20488;-81
2021/12/21 04:31:10;;;;;;;16.33;7.45;;;-1.70;99.90;;;;;;6154074;23;20044;-82
2021/12/21 04:33:39;;;;;;;18.80;7.70;;;-1.30;99.90;;;;;;6179407;23;20021;-82
2021/12/21 04:36:06;;;;;;;15.57;7.38;;;-1.00;99.90;;;;;;6179114;23;20024;-82
2021/12/21 04:38:36;;;;;;;16.17;7.85;;;-0.10;99.90;;;;;;6179432;23;20032;-82
2021/12/21 04:41:15;;;;;;;13.32;7.20;;;-0.20;99.90;;;;;;6179178;23;20028;-83
2021/12/21 04:43:42;;;;;;;16.50;7.47;;;-0.90;99.90;;;;;;6154391;23;20024;-82
2021/12/21 04:46:08;;;;;;;15.52;7.90;;;-0.90;99.90;;;;;;6154529;23;20021;-83
2021/12/21 04:48:34;;;;;;;176.68;13.25;;;-0.50;99.90;;;;;;6154331;23;20092;-82
2021/12/21 04:51:00;;;;;;;21.52;9.30;;;-0.30;99.90;;;;;;6178948;23;20323;-82
2021/12/21 04:53:26;;;;;;;15.45;8.32;;;1.00;99.90;;;;;;6151242;23;20048;-83
2021/12/21 04:55:52;;;;;;;18.95;8.45;;;1.40;99.90;;;;;;6153413;23;20384;-83
2021/12/21 04:58:18;;;;;;;17.27;8.13;;;-0.30;99.90;;;;;;6178558;23;20332;-83
2021/12/21 05:00:45;;;;;;;16.20;8.50;;;0.30;99.90;;;;;;6178851;23;20017;-83
2021/12/21 05:03:10;;;;;;;18.85;8.75;;;0.10;99.90;;;;;;6153716;23;20028;-83
2021/12/21 05:05:36;;;;;;;15.30;8.80;;;-0.30;99.90;;;;;;6154612;23;20017;-82
2021/12/21 05:08:18;;;;;;;17.45;7.97;;;0.40;99.90;;;;;;6154169;23;20347;-83
2021/12/21 05:10:48;;;;;;;11.88;6.90;;;0.40;99.90;;;;;;6153911;23;20392;-83
2021/12/21 05:13:15;;;;;;;18.92;6.10;;;0.20;99.90;;;;;;6178721;23;20021;-82
2021/12/21 05:15:42;;;;;;;13.40;5.88;;;-1.00;99.90;;;;;;6179090;23;20071;-83
2021/12/21 05:18:08;;;;;;;19.42;6.38;;;-1.70;99.90;;;;;;6178909;23;20074;-83
2021/12/21 05:20:33;;;;;;;22.13;8.40;;;1.10;99.90;;;;;;6179008;22;20765;-83
2021/12/21 05:22:59;;;;;;;18.33;7.78;;;-1.90;99.90;;;;;;6154449;23;20047;-83
2021/12/21 05:25:25;;;;;;;18.95;8.45;;;-1.30;99.90;;;;;;6153943;23;20350;-83
2021/12/21 05:27:50;;;;;;;18.38;8.48;;;-1.10;99.90;;;;;;6153922;23;20351;-83
2021/12/21 05:30:16;;;;;;;18.30;7.00;;;-0.50;99.90;;;;;;6154101;23;20096;-83
2021/12/21 05:32:42;;;;;;;13.00;6.85;;;-0.30;99.90;;;;;;6179541;23;20017;-83
2021/12/21 05:35:09;;;;;;;18.35;6.93;;;-1.10;99.90;;;;;;6154633;23;20070;-83
2021/12/21 05:38:32;;;;;;;34.95;8.40;;;-0.60;99.90;;;;;;6154212;23;20032;-83
2021/12/21 05:41:01;;;;;;;15.25;7.65;;;-0.30;99.90;;;;;;6178896;23;20014;-81
2021/12/21 05:43:28;;;;;;;17.88;8.95;;;-0.10;99.90;;;;;;6179043;23;20351;-82
2021/12/21 05:45:53;;;;;;;19.58;7.93;;;-0.30;99.90;;;;;;6154312;23;20013;-82
2021/12/21 05:48:19;;;;;;;20.23;8.23;;;0.00;99.90;;;;;;6154405;23;20473;-82
2021/12/21 05:50:45;;;;;;;16.98;8.15;;;1.30;99.90;;;;;;6179008;23;20017;-83
2021/12/21 05:53:10;;;;;;;17.10;8.43;;;0.20;99.90;;;;;;6178852;23;20017;-83
2021/12/21 05:55:36;;;;;;;19.02;8.38;;;-0.20;99.90;;;;;;6179267;23;20017;-84
2021/12/21 05:58:02;;;;;;;14.10;7.53;;;-0.40;99.90;;;;;;6179679;23;20017;-83
2021/12/21 06:00:31;;;;;;;17.63;7.60;;;-0.60;99.90;;;;;;6178823;23;20017;-83
2021/12/21 06:02:59;;;;;;;16.65;7.70;;;-0.20;99.90;;;;;;6153693;23;20412;-83
2021/12/21 06:05:26;;;;;;;15.15;6.43;;;-0.30;99.90;;;;;;6154029;23;20044;-83
2021/12/21 06:07:52;;;;;;;17.08;7.47;;;-0.20;99.90;;;;;;6179307;23;20067;-83
2021/12/21 06:10:26;;;;;;;17.58;7.95;;;-1.90;99.90;;;;;;6178701;22;20343;-83
2021/12/21 06:24:02;;;;;;;11.68;7.47;;;0.70;99.90;;;;;;6203669;23;20124;-83
2021/12/21 06:26:20;;;;;;;21.33;8.88;;;-1.40;99.90;;;;;;6178599;23;20017;-83
2021/12/21 06:28:47;;;;;;;1087.63;53.90;;;-1.30;99.90;;;;;;6154217;23;20027;-83
2021/12/21 06:31:14;;;;;;;48.72;11.75;;;-1.10;99.90;;;;;;6154081;23;20013;-83
2021/12/21 06:33:40;;;;;;;18.00;9.57;;;-1.10;99.90;;;;;;6179062;23;20381;-83
2021/12/21 06:36:07;;;;;;;20.25;9.82;;;-0.70;99.90;;;;;;6154032;23;20086;-84
2021/12/21 06:38:34;;;;;;;22.35;8.65;;;-0.60;99.90;;;;;;6178702;23;20451;-83
2021/12/21 06:41:00;;;;;;;21.58;8.68;;;1.50;99.90;;;;;;6178863;23;20258;-83
2021/12/21 06:43:26;;;;;;;22.77;9.15;;;1.50;99.90;;;;;;6178285;23;20024;-84
2021/12/21 06:46:01;;;;;;;19.92;9.95;;;-0.50;99.90;;;;;;6178511;23;20729;-83
2021/12/21 06:53:49;;;;;;;21.60;9.10;;;-0.30;99.90;;;;;;6163722;23;20454;-84
2021/12/21 06:56:16;;;;;;;16.95;8.20;;;0.40;99.90;;;;;;6178264;23;20418;-84
2021/12/21 06:58:42;;;;;;;23.75;8.95;;;0.20;99.90;;;;;;6178899;23;20481;-84
2021/12/21 07:01:08;;;;;;;48.17;9.20;;;0.00;99.90;;;;;;6153545;23;20021;-84
2021/12/21 07:03:35;;;;;;;32.97;8.82;;;0.10;99.90;;;;;;6178709;23;20049;-83
2021/12/21 07:06:02;;;;;;;40.47;9.50;;;0.10;99.90;;;;;;6178764;23;20013;-83
2021/12/21 07:08:31;;;;;;;37.35;10.05;;;1.00;99.90;;;;;;6178255;23;20009;-84
2021/12/21 07:19:05;;;;;;;22.58;10.23;;;0.30;99.90;;;;;;6202469;23;20096;-84
2021/12/21 07:21:31;;;;;;;23.17;9.52;;;-0.40;99.90;;;;;;6177377;23;20068;-85
2021/12/21 07:23:57;;;;;;;25.67;9.82;;;0.40;99.90;;;;;;6177330;23;20622;-83
2021/12/21 07:26:23;;;;;;;25.25;10.40;;;3.40;99.90;;;;;;6153653;23;20028;-83
2021/12/21 07:28:49;;;;;;;31.02;10.50;;;0.80;99.90;;;;;;6179090;23;20018;-87
2021/12/21 07:31:39;;;;;;;37.40;10.30;;;-0.40;99.90;;;;;;6179574;23;20588;-84
2021/12/21 07:34:05;;;;;;;44.17;10.65;;;-0.10;99.90;;;;;;6155096;23;20195;-83
2021/12/21 07:36:34;;;;;;;778.10;26.30;;;0.00;99.90;;;;;;6179254;23;20028;-80
2021/12/21 07:39:03;;;;;;;258.83;13.57;;;-0.30;99.90;;;;;;6178995;22;20116;-85
2021/12/21 07:41:29;;;;;;;520.78;17.85;;;0.20;99.90;;;;;;6179504;23;20063;-84
2021/12/21 07:43:55;;;;;;;371.73;13.52;;;0.80;99.90;;;;;;6179370;23;20217;-85
2021/12/21 07:46:21;;;;;;;82.50;9.88;;;-0.40;99.90;;;;;;6179206;23;20451;-84
2021/12/21 07:48:46;;;;;;;246.05;12.90;;;0.10;99.90;;;;;;6154925;23;20359;-84
2021/12/21 07:51:12;;;;;;;340.48;15.77;;;-0.70;99.90;;;;;;6179421;23;20097;-85
2021/12/21 07:53:39;;;;;;;248.45;12.32;;;1.70;99.90;;;;;;6151751;23;20028;-86
2021/12/21 07:56:05;;;;;;;206.35;10.82;;;0.00;99.90;;;;;;6154632;23;20155;-83
2021/12/21 07:58:33;;;;;;;170.15;10.23;;;-0.30;99.90;;;;;;6179643;23;20289;-82
2021/12/21 08:01:01;;;;;;;246.15;9.70;;;-1.00;99.90;;;;;;6179486;23;20013;-85
2021/12/21 08:03:30;;;;;;;29.88;7.57;;;1.30;99.90;;;;;;6179327;23;20090;-85
2021/12/21 08:05:58;;;;;;;44.60;9.07;;;-2.10;99.90;;;;;;6154968;23;20021;-83
2021/12/21 08:08:27;;;;;;;90.15;10.50;;;-1.60;99.90;;;;;;6179423;23;20070;-83
2021/12/21 08:11:08;;;;;;;137.13;10.18;;;-1.10;99.90;;;;;;6179211;23;20017;-84
2021/12/21 08:13:35;;;;;;;154.40;12.48;;;-0.90;99.90;;;;;;6179343;23;20024;-84
2021/12/21 08:16:01;;;;;;;167.38;13.18;;;-0.70;99.90;;;;;;6154735;23;20096;-82
2021/12/21 08:18:27;;;;;;;111.68;10.27;;;1.30;99.90;;;;;;6179076;23;20044;-84
2021/12/21 08:20:53;;;;;;;116.25;12.18;;;-0.30;99.90;;;;;;6152409;23;20096;-85
2021/12/21 08:23:19;;;;;;;36.58;9.15;;;-1.50;99.90;;;;;;6179117;23;20055;-85
2021/12/21 08:25:45;;;;;;;16.88;9.95;;;1.60;99.90;;;;;;6154848;23;20017;-84
2021/12/21 08:28:11;;;;;;;29.27;9.00;;;-0.60;99.90;;;;;;6179604;23;20021;-83
2021/12/21 08:30:38;;;;;;;24.63;7.93;;;1.40;99.90;;;;;;6154378;23;20017;-83
2021/12/21 08:33:04;;;;;;;15.52;7.72;;;0.70;99.90;;;;;;6155063;23;20014;-83
2021/12/21 08:35:31;;;;;;;38.92;10.02;;;-0.80;99.90;;;;;;6154536;23;20317;-81
2021/12/21 08:38:05;;;;;;;73.90;9.23;;;2.30;99.90;;;;;;6154282;23;20381;-84
2021/12/21 08:40:39;;;;;;;22.33;9.25;;;1.60;99.90;;;;;;6179275;23;20043;-83
2021/12/21 08:43:08;;;;;;;71.05;9.40;;;-0.60;99.90;;;;;;6154673;23;20017;-86
2021/12/21 08:45:36;;;;;;;83.20;8.82;;;0.40;99.90;;;;;;6154627;23;20017;-85
2021/12/21 08:48:02;;;;;;;231.35;16.38;;;0.30;99.90;;;;;;6179718;23;20040;-84
2021/12/21 08:50:29;;;;;;;218.48;9.15;;;0.90;99.90;;;;;;6154598;23;20151;-89
2021/12/21 08:52:56;;;;;;;124.22;8.02;;;-0.10;99.90;;;;;;6179685;23;20017;-85
2021/12/21 08:55:22;;;;;;;124.05;7.88;;;0.90;99.90;;;;;;6177229;23;20066;-84
2021/12/21 08:57:48;;;;;;;32.42;8.38;;;0.20;99.90;;;;;;6154199;23;20021;-81
2021/12/21 09:00:14;;;;;;;16.38;8.40;;;0.20;99.90;;;;;;6154494;23;20021;-78
2021/12/21 09:02:40;;;;;;;17.00;8.80;;;0.40;99.90;;;;;;6154315;23;20021;-82
2021/12/21 09:05:14;;;;;;;17.13;9.60;;;0.40;99.90;;;;;;6154480;23;20013;-82
2021/12/21 09:07:42;;;;;;;130.32;12.80;;;0.10;99.90;;;;;;6153779;23;20017;-82
2021/12/21 09:10:09;;;;;;;12.00;8.50;;;2.90;99.90;;;;;;6154485;23;20018;-84
2021/12/21 09:12:36;;;;;;;13.80;9.07;;;0.60;99.90;;;;;;6153828;23;20408;-85
2021/12/21 09:15:03;;;;;;;12.10;8.63;;;3.00;99.90;;;;;;6154754;23;20017;-82
2021/12/21 09:17:29;;;;;;;12.32;9.23;;;1.80;99.90;;;;;;6153983;23;20095;-83
2021/12/21 09:19:56;;;;;;;13.82;8.32;;;1.10;99.90;;;;;;6179335;23;20375;-82
2021/12/21 09:22:23;;;;;;;11.50;7.80;;;3.60;99.90;;;;;;6154510;23;20474;-84
2021/12/21 09:24:49;;;;;;;12.60;8.10;;;3.70;99.90;;;;;;6154440;23;20017;-82
2021/12/21 09:27:16;;;;;;;13.70;8.23;;;-0.30;99.90;;;;;;6154403;23;20025;-86
2021/12/21 09:29:43;;;;;;;14.60;9.07;;;1.60;99.90;;;;;;6152902;23;20386;-84
2021/12/21 09:32:13;;;;;;;13.48;8.27;;;2.10;99.90;;;;;;6153871;23;20017;-84
2021/12/21 09:34:40;;;;;;;10.23;7.78;;;1.80;99.90;;;;;;6178913;23;20332;-89
2021/12/21 09:37:08;;;;;;;10.52;7.45;;;2.10;99.90;;;;;;6154148;23;20073;-83
2021/12/21 09:39:34;;;;;;;12.63;8.60;;;2.60;99.90;;;;;;6153960;23;20021;-81
2021/12/21 09:42:00;;;;;;;14.77;8.43;;;1.60;99.90;;;;;;6179035;23;20073;-83
2021/12/21 09:44:26;;;;;;;12.70;7.60;;;;;;;;;;6154350;23;20120;-83
2021/12/21 09:46:52;;;;;;;15.43;8.32;;;2.20;99.90;;;;;;6154893;23;20032;-82
2021/12/21 09:49:18;;;;;;;19.77;9.18;;;2.50;99.90;;;;;;6153886;23;20013;-84
2021/12/21 09:51:44;;;;;;;14.15;7.97;;;3.60;99.90;;;;;;6154123;23;20099;-85
2021/12/21 09:54:10;;;;;;;15.63;8.25;;;2.40;99.90;;;;;;6178685;22;20009;-85
2021/12/21 09:56:36;;;;;;;14.80;8.48;;;4.60;99.90;;;;;;6153966;23;20021;-85
2021/12/21 09:59:02;;;;;;;16.60;8.55;;;3.00;99.90;;;;;;6154147;23;20021;-84
2021/12/21 10:01:28;;;;;;;12.70;8.13;;;5.40;99.90;;;;;;6154352;23;20070;-84
2021/12/21 10:03:54;;;;;;;18.08;8.23;;;3.20;99.90;;;;;;6154531;23;20451;-86
2021/12/21 10:06:20;;;;;;;17.33;8.35;;;3.30;99.90;;;;;;6178849;23;20017;-84
2021/12/21 10:08:47;;;;;;;13.25;7.93;;;3.10;99.90;;;;;;6153290;23;20359;-84
2021/12/21 10:11:22;;;;;;;14.30;7.55;;;3.60;99.90;;;;;;6179184;23;20021;-83
2021/12/21 10:13:49;;;;;;;13.60;7.68;;;5.20;99.90;;;;;;6178738;23;20121;-83
2021/12/21 10:16:20;;;;;;;14.15;8.35;;;3.60;99.90;;;;;;6179143;23;20104;-84
2021/12/21 10:18:46;;;;;;;16.63;8.07;;;5.80;99.90;;;;;;6178509;23;20458;-83
2021/12/21 10:21:15;;;;;;;16.50;8.40;;;3.60;99.90;;;;;;6154633;23;20447;-86
2021/12/21 10:23:45;;;;;;;14.70;8.00;;;2.80;99.90;;;;;;6153833;23;20039;-86
2021/12/21 10:26:18;;;;;;;13.27;8.10;;;3.80;99.90;;;;;;6153795;23;20024;-84
2021/12/21 10:28:48;;;;;;;18.77;8.45;;;4.40;99.90;;;;;;6153313;23;20020;-83
2021/12/21 10:31:21;;;;;;;17.60;7.75;;;6.10;99.90;;;;;;6178288;23;20428;-83
2021/12/21 10:33:48;;;;;;;15.48;7.97;;;3.80;99.90;;;;;;6153273;23;20021;-82
2021/12/21 10:36:16;;;;;;;14.27;7.72;;;4.10;99.90;;;;;;6153597;23;20045;-82
2021/12/21 10:38:49;;;;;;;16.08;7.78;;;6.20;99.90;;;;;;6152042;23;20014;-81
2021/12/21 10:41:20;;;;;;;21.15;7.65;;;4.40;99.90;;;;;;6153703;23;20450;-82
2021/12/21 10:44:05;;;;;;;14.40;7.28;;;6.30;99.90;;;;;;6177986;23;20193;-83
2021/12/21 10:46:34;;;;;;;14.32;7.20;;;4.20;99.90;;;;;;6153823;23;20032;-83
2021/12/21 10:49:11;;;;;;;16.17;7.63;;;4.50;99.90;;;;;;6153621;23;20066;-82
2021/12/21 10:51:57;;;;;;;13.20;7.82;;;4.70;99.90;;;;;;6153011;23;20059;-82
2021/12/21 10:54:33;;;;;;;19.08;7.90;;;4.70;99.90;;;;;;6152655;23;20021;-81
2021/12/21 10:57:02;;;;;;;12.40;7.55;;;4.70;99.90;;;;;;6178042;22;20021;-79
2021/12/21 10:59:32;;;;;;;12.38;7.22;;;5.10;99.90;;;;;;6153199;23;20018;-83
2021/12/21 11:02:09;;;;;;;14.38;7.50;;;5.30;99.90;;;;;;6154631;23;20390;-83
2021/12/21 11:04:38;;;;;;;23.60;8.55;;;4.90;99.90;;;;;;6154503;23;20013;-83
2021/12/21 11:07:19;;;;;;;16.98;7.75;;;5.20;99.90;;;;;;6154669;23;20021;-84
2021/12/21 11:09:55;;;;;;;16.38;8.43;;;5.40;99.90;;;;;;6154030;23;20593;-82
2021/12/21 11:12:22;;;;;;;19.63;8.30;;;5.60;99.90;;;;;;6154697;23;20419;-82
2021/12/21 11:14:48;;;;;;;15.18;7.50;;;5.80;99.90;;;;;;6154577;23;20017;-86
2021/12/21 11:17:16;;;;;;;13.15;7.13;;;5.90;99.90;;;;;;6154766;23;20104;-81
2021/12/21 11:19:42;;;;;;;17.98;6.88;;;6.70;99.90;;;;;;6179251;23;20021;-81
2021/12/21 11:22:09;;;;;;;20.98;6.88;;;8.00;99.90;;;;;;6179317;23;20060;-82
2021/12/21 11:24:38;;;;;;;18.05;6.60;;;6.10;99.90;;;;;;6154527;23;20051;-82
2021/12/21 11:27:04;;;;;;;15.25;5.60;;;7.60;99.90;;;;;;6179366;23;20051;-82
2021/12/21 11:29:32;;;;;;;14.07;5.95;;;6.50;99.90;;;;;;6154457;23;20025;-83
2021/12/21 11:32:01;;;;;;;12.50;5.43;;;6.20;99.90;;;;;;6154381;23;20304;-81
2021/12/21 11:34:34;;;;;;;12.10;5.40;;;5.90;99.90;;;;;;6154765;23;20099;-82
2021/12/21 11:39:45;;;;;;;19.38;6.22;;;6.40;99.90;;;;;;6204186;23;20113;-86
2021/12/21 11:42:22;;;;;;;15.82;6.15;;;6.00;99.90;;;;;;6154674;23;20042;-84
2021/12/21 11:45:07;;;;;;;19.15;6.20;;;6.10;99.90;;;;;;6154738;23;20017;-80
2021/12/21 11:47:44;;;;;;;13.43;5.60;;;5.90;99.90;;;;;;6178328;23;20021;-83
2021/12/21 11:50:11;;;;;;;12.77;5.80;;;5.90;99.90;;;;;;6179339;23;20021;-81
2021/12/21 11:52:47;;;;;;;11.05;5.20;;;6.20;99.90;;;;;;6179141;23;20419;-83
2021/12/21 11:55:15;;;;;;;13.43;5.75;;;6.10;99.90;;;;;;6153974;23;20024;-81
2021/12/21 11:57:49;;;;;;;14.27;5.45;;;8.20;99.90;;;;;;6178742;22;20131;-82
2021/12/21 12:00:18;;;;;;;13.93;5.82;;;6.50;99.90;;;;;;6154516;23;20017;-81
2021/12/21 12:02:48;;;;;;;14.23;6.05;;;6.30;99.90;;;;;;6154250;23;20013;-87
2021/12/21 12:05:19;;;;;;;26.92;5.95;;;6.10;99.90;;;;;;6154455;23;20374;-82
2021/12/21 12:07:45;;;;;;;14.18;5.50;;;6.30;99.90;;;;;;6178458;23;20365;-81
2021/12/21 12:10:14;;;;;;;16.67;5.30;;;8.30;99.90;;;;;;6179349;23;20393;-82
2021/12/21 12:12:40;;;;;;;14.82;5.90;;;7.40;99.90;;;;;;6153825;23;20397;-76
2021/12/21 12:15:08;;;;;;;18.15;5.55;;;7.80;99.90;;;;;;6179444;22;20447;-82
2021/12/21 12:17:45;;;;;;;15.10;5.38;;;6.40;99.90;;;;;;6154629;23;20017;-80
2021/12/21 12:20:12;;;;;;;13.95;5.75;;;6.50;99.90;;;;;;6155263;23;20013;-82
2021/12/21 12:22:40;;;;;;;17.00;5.75;;;4.70;99.90;;;;;;6155018;23;20050;-82
2021/12/21 12:25:12;;;;;;;15.75;5.55;;;6.30;99.90;;;;;;6155064;23;20013;-82
2021/12/21 12:27:44;;;;;;;15.35;5.60;;;6.90;99.90;;;;;;6154702;23;20096;-81
2021/12/21 12:30:13;;;;;;;14.05;5.00;;;6.30;99.90;;;;;;6154812;23;20021;-82
2021/12/21 12:32:46;;;;;;;7.50;4.38;;;6.50;99.90;;;;;;6155293;23;20074;-82
2021/12/21 12:35:15;;;;;;;17.13;6.38;;;5.80;99.90;;;;;;6155331;23;20027;-82
2021/12/21 12:38:18;;;;;;;15.30;5.70;;;6.40;99.90;;;;;;6179741;23;20038;-79
2021/12/21 12:40:50;;;;;;;16.48;5.78;;;6.40;99.90;;;;;;6179595;22;20017;-78
2021/12/21 12:43:19;;;;;;;11.82;5.78;;;7.80;99.90;;;;;;6179005;23;20048;-80
2021/12/21 12:45:54;;;;;;;17.67;5.53;;;6.30;99.90;;;;;;6154079;23;20059;-79
2021/12/21 12:48:25;;;;;;;11.93;5.47;;;8.00;99.90;;;;;;6154492;23;20130;-80
2021/12/21 12:50:53;;;;;;;12.90;5.03;;;6.40;99.90;;;;;;6178337;23;20021;-81
2021/12/21 12:53:19;;;;;;;12.65;5.28;;;6.40;99.90;;;;;;6154034;23;20100;-81
2021/12/21 12:55:54;;;;;;;15.10;5.50;;;8.20;99.90;;;;;;6151591;23;20444;-80
2021/12/21 12:58:23;;;;;;;14.82;6.18;;;6.20;99.90;;;;;;6153797;23;20374;-79
2021/12/21 13:01:02;;;;;;;13.68;5.90;;;6.40;99.90;;;;;;6153733;23;20297;-78
2021/12/21 13:03:41;;;;;;;18.73;5.97;;;6.50;99.90;;;;;;6154217;23;20055;-81
2021/12/21 13:06:12;;;;;;;15.18;4.88;;;6.60;99.90;;;;;;6154929;23;20019;-82
2021/12/21 13:08:39;;;;;;;15.73;5.65;;;8.40;99.90;;;;;;6178615;23;20020;-82
2021/12/21 13:11:06;;;;;;;11.77;5.00;;;6.50;99.90;;;;;;6154530;23;20028;-80
2021/12/21 13:13:37;;;;;;;18.15;5.45;;;6.50;99.90;;;;;;6153793;23;20096;-80
2021/12/21 13:16:09;;;;;;;13.75;5.45;;;6.50;99.90;;;;;;6153733;23;20028;-79
2021/12/21 13:18:43;;;;;;;14.75;4.93;;;6.20;99.90;;;;;;6152812;23;20066;-80
2021/12/21 13:21:20;;;;;;;15.40;5.18;;;8.40;99.90;;;;;;6178670;23;20016;-82
2021/12/21 13:23:49;;;;;;;15.05;4.80;;;6.30;99.90;;;;;;6153336;23;20677;-80
2021/12/21 13:26:16;;;;;;;11.77;4.55;;;7.10;99.90;;;;;;6153839;23;20028;-79
2021/12/21 13:28:49;;;;;;;12.73;4.25;;;5.70;99.90;;;;;;6153805;23;20013;-79
2021/12/21 13:31:22;;;;;;;10.18;4.60;;;6.30;99.90;;;;;;6153932;23;20021;-81
2021/12/21 13:33:52;;;;;;;10.15;4.80;;;7.80;99.90;;;;;;6153939;23;20100;-80
2021/12/21 13:36:18;;;;;;;13.35;4.50;;;8.00;99.90;;;;;;6154037;23;20028;-81
2021/12/21 13:38:45;;;;;;;16.83;4.85;;;6.10;99.90;;;;;;6153691;23;20496;-82
2021/12/21 13:41:14;;;;;;;15.85;4.55;;;6.10;99.90;;;;;;6154258;23;20075;-82
2021/12/21 13:43:53;;;;;;;15.25;4.65;;;8.20;99.90;;;;;;6153983;23;20017;-82
2021/12/21 13:46:19;;;;;;;16.15;4.30;;;6.10;99.90;;;;;;6154106;23;20078;-80